EGPI - Islay
Distance from station: E 5mi, 14km
Updated: 06/24/2018 5:20pm
Clear
Clear
 Wind from ESE
Wind: ESE 2 mph , 4 km/h
Temperature: 45°F , 7°C
Dew Point: 43°F , 6°C
Humidity: 93%
Barometer: 30.27 inHg , 1025 hPa
Clouds: Clear
Visibility: 6 miles , 10 km
2018/06/25 00:20 EGPI 250020Z AUTO 11002KT 9999 NCD 07/06 Q1025